createdAt,value
2019-04-20T00:01:25.478Z,102251.64
2019-04-20T00:03:51.938Z,102249.55
2019-04-20T00:06:22.018Z,102251.13
2019-04-20T00:08:59.952Z,102249.43
2019-04-20T00:11:29.804Z,102246.04
2019-04-20T00:14:03.652Z,102251.61
2019-04-20T00:16:27.360Z,102247.16
2019-04-20T00:19:00.735Z,102247.63
2019-04-20T00:21:50.658Z,102244.12
2019-04-20T00:24:25.012Z,102240.76
2019-04-20T00:27:30.270Z,102244.14
2019-04-20T00:29:47.852Z,102244.14
2019-04-20T00:32:09.867Z,102246.56
2019-04-20T00:34:33.780Z,102237.23
2019-04-20T00:37:02.300Z,102237.13
2019-04-20T00:39:32.375Z,102237.37
2019-04-20T00:42:08.118Z,102240.27
2019-04-20T00:44:39.517Z,102231.92
2019-04-20T00:47:16.950Z,102234.80
2019-04-20T00:49:53.648Z,102232.38
2019-04-20T00:52:27.641Z,102233.83
2019-04-20T00:54:43.169Z,102232.13
2019-04-20T00:57:22.409Z,102241.61
2019-04-20T01:00:07.291Z,102237.73
2019-04-20T01:02:32.632Z,102237.97
2019-04-20T01:05:05.436Z,102233.12
2019-04-20T01:07:49.577Z,102243.31
2019-04-20T01:10:15.752Z,102237.37
2019-04-20T01:12:47.447Z,102236.76
2019-04-20T01:15:29.687Z,102236.27
2019-04-20T01:17:49.777Z,102236.52
2019-04-20T01:20:22.695Z,102237.00
2019-04-20T01:23:00.177Z,102243.17
2019-04-20T01:25:29.960Z,102244.02
2019-04-20T01:28:18.366Z,102243.52
2019-04-20T01:30:34.014Z,102241.09
2019-04-20T01:33:12.749Z,102241.59
2019-04-20T01:35:52.086Z,102239.28
2019-04-20T01:38:23.674Z,102249.45
2019-04-20T01:40:36.138Z,102240.84
2019-04-20T01:43:06.313Z,102246.77
2019-04-20T01:45:40.606Z,102245.67
2019-04-20T01:48:09.885Z,102249.41
2019-04-20T01:50:49.949Z,102248.39
2019-04-20T01:53:23.678Z,102251.76
2019-04-20T01:56:05.417Z,102252.58
2019-04-20T01:58:46.163Z,102248.96
2019-04-20T02:01:33.577Z,102253.44
2019-04-20T02:04:11.679Z,102261.75
2019-04-20T02:06:43.568Z,102258.94
2019-04-20T02:09:16.773Z,102252.30
2019-04-20T02:11:46.871Z,102259.16
2019-04-20T02:14:24.261Z,102258.43
2019-04-20T02:16:51.519Z,102258.43
2019-04-20T02:19:31.636Z,102258.80
2019-04-20T02:22:04.054Z,102260.23
2019-04-20T02:24:21.997Z,102261.79
2019-04-20T02:26:52.102Z,102260.67
2019-04-20T02:29:46.043Z,102262.38
2019-04-20T02:35:30.104Z,102264.00
2019-04-20T02:38:10.405Z,102263.77
2019-04-20T02:43:15.663Z,102254.50
2019-04-20T02:45:49.168Z,102256.55
2019-04-20T02:48:13.496Z,102254.44
2019-04-20T02:50:54.541Z,102258.20
2019-04-20T02:53:34.406Z,102255.28
2019-04-20T02:55:57.673Z,102261.77
2019-04-20T02:58:23.891Z,102260.33
2019-04-20T03:00:55.165Z,102263.30
2019-04-20T03:03:12.432Z,102260.12
2019-04-20T03:05:42.420Z,102260.84
2019-04-20T03:08:17.327Z,102263.29
2019-04-20T03:11:01.885Z,102265.64
2019-04-20T03:13:27.065Z,102269.25
2019-04-20T03:15:54.914Z,102265.41
2019-04-20T03:18:25.291Z,102271.80
2019-04-20T03:21:00.695Z,102266.23
2019-04-20T03:23:37.228Z,102263.45
2019-04-20T03:26:10.997Z,102266.70
2019-04-20T03:29:03.991Z,102265.64
2019-04-20T03:32:33.036Z,102266.84
2019-04-20T03:39:23.287Z,102268.59
2019-04-20T03:41:40.494Z,102272.36
2019-04-20T03:44:10.525Z,102267.80
2019-04-20T03:46:45.521Z,102263.34
2019-04-20T03:49:27.525Z,102267.27
2019-04-20T03:52:22.058Z,102264.66
2019-04-20T03:55:24.257Z,102268.61
2019-04-20T03:58:02.912Z,102273.45
2019-04-20T04:00:44.298Z,102273.61
2019-04-20T04:03:36.142Z,102269.86
2019-04-20T04:06:03.048Z,102265.30
2019-04-20T04:08:27.730Z,102272.31
2019-04-20T04:11:14.838Z,102266.84
2019-04-20T04:13:25.198Z,102268.16
2019-04-20T04:16:01.139Z,102276.27
2019-04-20T04:18:34.701Z,102273.45
2019-04-20T04:21:04.791Z,102272.70
2019-04-20T04:23:55.437Z,102272.80
2019-04-20T04:26:22.328Z,102273.17
2019-04-20T04:28:51.950Z,102276.67
2019-04-20T04:31:31.106Z,102275.62
2019-04-20T04:33:59.636Z,102276.78
2019-04-20T04:36:29.327Z,102277.73
2019-04-20T04:39:02.567Z,102277.36
2019-04-20T04:41:31.009Z,102291.00
2019-04-20T04:44:06.105Z,102287.03
2019-04-20T04:46:18.575Z,102289.78
2019-04-20T04:48:51.688Z,102287.23
2019-04-20T04:51:25.669Z,102295.77
2019-04-20T04:53:59.794Z,102297.72
2019-04-20T04:56:28.296Z,102299.38
2019-04-20T04:58:58.195Z,102301.69
2019-04-20T05:01:31.834Z,102308.67
2019-04-20T05:04:31.685Z,102303.88
2019-04-20T05:06:45.812Z,102311.70
2019-04-20T05:09:06.064Z,102304.95
2019-04-20T05:11:35.579Z,102301.69
2019-04-20T05:14:11.003Z,102302.75
2019-04-20T05:16:56.979Z,102306.86
2019-04-20T05:19:30.450Z,102309.20
2019-04-20T05:22:14.895Z,102309.11
2019-04-20T05:24:48.179Z,102307.30
2019-04-20T05:27:51.221Z,102305.50
2019-04-20T05:30:03.723Z,102302.38
2019-04-20T05:32:44.887Z,102303.70
2019-04-20T05:35:26.834Z,102307.95
2019-04-20T05:38:06.965Z,102309.17
2019-04-20T05:40:35.197Z,102303.97
2019-04-20T05:43:13.158Z,102310.50
2019-04-20T05:45:40.619Z,102305.19
2019-04-20T05:48:11.843Z,102309.17
2019-04-20T05:50:51.928Z,102309.30
2019-04-20T05:53:19.909Z,102304.47
2019-04-20T05:55:52.492Z,102305.70
2019-04-20T05:58:26.111Z,102309.58
2019-04-20T06:01:02.756Z,102309.58
2019-04-20T06:03:34.104Z,102310.32
2019-04-20T06:06:08.064Z,102313.72
2019-04-20T06:08:46.510Z,102318.34
2019-04-20T06:11:07.942Z,102319.67
2019-04-20T06:13:40.690Z,102327.42
2019-04-20T06:16:23.019Z,102325.14
2019-04-20T06:19:10.043Z,102323.92
2019-04-20T06:21:37.904Z,102327.53
2019-04-20T06:24:16.747Z,102330.94
2019-04-20T06:29:18.485Z,102334.19
2019-04-20T06:31:57.846Z,102335.06
2019-04-20T06:34:33.404Z,102335.38
2019-04-20T06:44:52.401Z,102328.98
2019-04-20T06:49:38.006Z,102331.44
2019-04-20T06:52:26.196Z,102332.55
2019-04-20T06:55:05.628Z,102341.74
2019-04-20T06:57:46.404Z,102336.48
2019-04-20T07:00:15.641Z,102332.98
2019-04-20T07:03:01.848Z,102337.87
2019-04-20T07:05:21.201Z,102332.97
2019-04-20T07:07:53.394Z,102335.74
2019-04-20T07:10:26.266Z,102335.30
2019-04-20T07:12:49.723Z,102336.16
2019-04-20T07:15:22.733Z,102335.50
2019-04-20T07:18:02.741Z,102335.17
2019-04-20T07:20:55.518Z,102329.70
2019-04-20T07:26:00.086Z,102329.27
2019-04-20T07:28:35.583Z,102338.36
2019-04-20T07:31:05.145Z,102331.73
2019-04-20T07:33:32.212Z,102333.17
2019-04-20T07:36:04.212Z,102339.00
2019-04-20T07:41:12.951Z,102331.14
2019-04-20T07:43:51.014Z,102337.92
2019-04-20T07:46:24.919Z,102335.03
2019-04-20T07:48:42.881Z,102329.36
2019-04-20T07:51:05.478Z,102331.53
2019-04-20T07:53:36.333Z,102333.97
2019-04-20T07:56:16.335Z,102335.66
2019-04-20T07:58:38.733Z,102334.70
2019-04-20T08:01:38.838Z,102329.98
2019-04-20T08:04:08.070Z,102328.99
2019-04-20T08:06:29.839Z,102321.86
2019-04-20T08:09:08.715Z,102323.44
2019-04-20T08:11:50.843Z,102320.66
2019-04-20T08:14:19.302Z,102315.66
2019-04-20T08:16:58.242Z,102321.36
2019-04-20T08:19:17.393Z,102323.52
2019-04-20T08:21:52.926Z,102322.66
2019-04-20T08:24:21.373Z,102320.36
2019-04-20T08:26:43.435Z,102322.26
2019-04-20T08:29:21.492Z,102321.05
2019-04-20T08:32:14.071Z,102324.55
2019-04-20T08:34:53.750Z,102326.61
2019-04-20T08:37:18.564Z,102327.22
2019-04-20T08:39:58.695Z,102326.97
2019-04-20T08:42:24.818Z,102323.17
2019-04-20T08:45:03.683Z,102322.80
2019-04-20T08:47:37.868Z,102320.62
2019-04-20T08:50:27.225Z,102322.75
2019-04-20T08:55:18.058Z,102321.03
2019-04-20T08:57:31.321Z,102319.78
2019-04-20T09:00:03.536Z,102325.58
2019-04-20T09:02:34.693Z,102321.85
2019-04-20T09:05:14.675Z,102317.11
2019-04-20T09:07:53.843Z,102320.70
2019-04-20T09:10:34.401Z,102318.27
2019-04-20T09:12:58.592Z,102315.83
2019-04-20T09:15:16.819Z,102309.64
2019-04-20T09:18:20.796Z,102317.03
2019-04-20T09:20:50.603Z,102308.52
2019-04-20T09:23:29.578Z,102305.17
2019-04-20T09:26:05.919Z,102309.38
2019-04-20T09:28:31.900Z,102311.15
2019-04-20T09:31:36.944Z,102308.45
2019-04-20T09:34:15.453Z,102306.01
2019-04-20T09:37:12.916Z,102302.42
2019-04-20T09:39:51.302Z,102306.30
2019-04-20T09:42:20.343Z,102297.67
2019-04-20T09:44:54.405Z,102301.41
2019-04-20T09:47:27.468Z,102295.39
2019-04-20T09:50:03.420Z,102294.73
2019-04-20T09:52:41.079Z,102293.98
2019-04-20T09:55:10.522Z,102293.06
2019-04-20T09:57:43.897Z,102286.59
2019-04-20T10:00:16.844Z,102287.54
2019-04-20T10:02:37.973Z,102280.84
2019-04-20T10:05:09.424Z,102283.17
2019-04-20T10:07:40.999Z,102283.19
2019-04-20T10:10:21.502Z,102275.47
2019-04-20T10:12:43.923Z,102273.64
2019-04-20T10:15:35.399Z,102272.74
2019-04-20T10:18:07.920Z,102266.00
2019-04-20T10:20:41.405Z,102261.48
2019-04-20T10:23:12.459Z,102259.64
2019-04-20T10:25:42.997Z,102257.16
2019-04-20T10:28:13.923Z,102262.81
2019-04-20T10:30:44.680Z,102256.93
2019-04-20T10:33:15.496Z,102251.73
2019-04-20T10:35:45.660Z,102250.78
2019-04-20T10:38:21.523Z,102252.92
2019-04-20T10:41:01.950Z,102250.78
2019-04-20T10:43:23.942Z,102254.50
2019-04-20T10:45:55.042Z,102251.98
2019-04-20T10:48:25.077Z,102251.45
2019-04-20T10:50:55.098Z,102248.23
2019-04-20T10:53:25.994Z,102231.50
2019-04-20T10:55:56.172Z,102231.50
2019-04-20T10:58:27.376Z,102235.34
2019-04-20T11:00:57.676Z,102230.37
2019-04-20T11:03:28.912Z,102230.30
2019-04-20T11:06:00.603Z,102231.23
2019-04-20T11:08:30.744Z,102230.66
2019-04-20T11:11:11.893Z,102227.35
2019-04-20T11:13:33.164Z,102234.30
2019-04-20T11:16:04.306Z,102224.73
2019-04-20T11:18:35.521Z,102224.91
2019-04-20T11:21:07.198Z,102220.41
2019-04-20T11:23:38.321Z,102215.06
2019-04-20T11:26:08.667Z,102218.10
2019-04-20T11:28:40.009Z,102216.79
2019-04-20T11:31:10.286Z,102196.23
2019-04-20T11:33:40.516Z,102201.62
2019-04-20T11:36:10.542Z,102198.43
2019-04-20T11:38:40.901Z,102199.92
2019-04-20T11:41:17.835Z,102199.09
2019-04-20T11:43:44.042Z,102192.86
2019-04-20T11:46:14.548Z,102189.11
2019-04-20T11:48:45.462Z,102179.00
2019-04-20T11:51:16.070Z,102179.95
2019-04-20T11:53:48.204Z,102179.22
2019-04-20T11:56:24.054Z,102171.06
2019-04-20T11:58:51.039Z,102165.17
2019-04-20T12:01:47.925Z,102165.94
2019-04-20T12:04:26.106Z,102158.45
2019-04-20T12:06:46.691Z,102152.67
2019-04-20T12:09:17.125Z,102146.53
2019-04-20T12:11:59.719Z,102142.69
2019-04-20T12:14:18.915Z,102138.54
2019-04-20T12:16:49.961Z,102137.01
2019-04-20T12:19:20.930Z,102141.22
2019-04-20T12:21:51.683Z,102140.80
2019-04-20T12:24:22.671Z,102132.69
2019-04-20T12:26:54.362Z,102128.34
2019-04-20T12:29:25.715Z,102126.66
2019-04-20T12:31:59.115Z,102131.65
2019-04-20T12:34:28.678Z,102133.14
2019-04-20T12:36:58.853Z,102133.66
2019-04-20T12:39:29.084Z,102130.95
2019-04-20T12:42:02.831Z,102128.58
2019-04-20T12:44:32.041Z,102126.89
2019-04-20T12:47:02.068Z,102128.50
2019-04-20T12:49:32.089Z,102122.67
2019-04-20T12:52:05.133Z,102121.20
2019-04-20T12:54:34.501Z,102116.02
2019-04-20T12:57:04.686Z,102115.14
2019-04-20T12:59:35.791Z,102109.77
2019-04-20T13:02:07.117Z,102112.36
2019-04-20T13:04:37.401Z,102102.69
2019-04-20T13:07:08.028Z,102100.94
2019-04-20T13:09:46.383Z,102097.89
2019-04-20T13:12:32.213Z,102094.17
2019-04-20T13:15:22.355Z,102084.36
2019-04-20T13:17:54.163Z,102086.95
2019-04-20T13:20:24.043Z,102076.26
2019-04-20T13:22:55.012Z,102075.15
2019-04-20T13:25:26.197Z,102074.56
2019-04-20T13:27:56.917Z,102073.92
2019-04-20T13:30:27.997Z,102070.42
2019-04-20T13:32:59.337Z,102063.16
2019-04-20T13:35:30.106Z,102062.45
2019-04-20T13:38:00.341Z,102059.05
2019-04-20T13:40:31.721Z,102058.52
2019-04-20T13:43:01.777Z,102056.38
2019-04-20T13:45:32.962Z,102052.44
2019-04-20T13:48:04.252Z,102044.92
2019-04-20T13:50:35.920Z,102040.44
2019-04-20T13:53:07.601Z,102044.30
2019-04-20T13:55:38.907Z,102036.25
2019-04-20T13:58:31.808Z,102039.47
2019-04-20T14:01:21.144Z,102030.11
2019-04-20T14:04:10.839Z,102032.48
2019-04-20T14:06:41.816Z,102031.51
2019-04-20T14:09:12.267Z,102021.47
2019-04-20T14:11:43.407Z,102027.63
2019-04-20T14:14:15.188Z,102025.02
2019-04-20T14:16:45.458Z,102018.86
2019-04-20T14:19:16.522Z,102012.52
2019-04-20T14:21:48.167Z,102008.37
2019-04-20T14:24:19.180Z,102011.47
2019-04-20T14:26:49.174Z,102004.91
2019-04-20T14:29:19.228Z,102003.45
2019-04-20T14:31:50.039Z,102006.91
2019-04-20T14:34:20.706Z,102006.02
2019-04-20T14:36:50.965Z,101991.27
2019-04-20T14:39:20.921Z,101995.63
2019-04-20T14:41:52.018Z,101992.69
2019-04-20T14:44:21.989Z,101988.98
2019-04-20T14:46:51.935Z,101995.30
2019-04-20T14:49:22.966Z,101988.00
2019-04-20T14:51:55.818Z,101982.84
2019-04-20T14:54:25.574Z,101981.20
2019-04-20T14:56:56.598Z,101977.46
2019-04-20T14:59:33.798Z,101968.91
2019-04-20T15:02:06.664Z,101967.03
2019-04-20T15:04:37.156Z,101961.41
2019-04-20T15:07:07.207Z,101960.11
2019-04-20T15:09:40.503Z,101949.97
2019-04-20T15:12:11.026Z,101951.84
2019-04-20T15:14:41.086Z,101944.58
2019-04-20T15:17:13.146Z,101944.27
2019-04-20T15:19:55.646Z,101939.98
2019-04-20T15:22:35.918Z,101932.80
2019-04-20T15:25:07.635Z,101939.55
2019-04-20T15:27:38.561Z,101928.22
2019-04-20T15:30:09.618Z,101936.98
2019-04-20T15:32:40.643Z,101931.76
2019-04-20T15:35:11.173Z,101923.50
2019-04-20T15:37:42.444Z,101925.26
2019-04-20T15:40:13.142Z,101926.76
2019-04-20T15:42:56.581Z,101925.15
2019-04-20T15:45:16.158Z,101925.34
2019-04-20T15:47:47.922Z,101918.35
2019-04-20T15:50:20.222Z,101920.94
2019-04-20T15:52:52.641Z,101916.72
2019-04-20T15:55:27.418Z,101923.82
2019-04-20T15:57:55.429Z,101917.67
2019-04-20T16:00:26.683Z,101918.97
2019-04-20T16:03:01.295Z,101919.08
2019-04-20T16:05:49.449Z,101909.90
2019-04-20T16:08:28.197Z,101911.26
2019-04-20T16:10:59.363Z,101911.97
2019-04-20T16:13:35.812Z,101909.14
2019-04-20T16:16:01.510Z,101907.73
2019-04-20T16:18:34.926Z,101908.58
2019-04-20T16:21:11.664Z,101910.02
2019-04-20T16:23:56.999Z,101905.31
2019-04-20T16:26:44.166Z,101913.22
2019-04-20T16:29:15.390Z,101904.45
2019-04-20T16:31:54.631Z,101907.37
2019-04-20T16:34:25.495Z,101909.03
2019-04-20T16:36:57.849Z,101907.80
2019-04-20T16:39:28.291Z,101903.38
2019-04-20T16:41:58.588Z,101896.05
2019-04-20T16:44:29.338Z,101892.69
2019-04-20T16:47:00.482Z,101895.46
2019-04-20T16:49:32.779Z,101897.09
2019-04-20T16:52:03.120Z,101899.98
2019-04-20T16:54:32.984Z,101898.36
2019-04-20T16:57:04.585Z,101894.64
2019-04-20T16:59:40.137Z,101891.53
2019-04-20T17:02:06.667Z,101887.55
2019-04-20T17:04:37.491Z,101890.92
2019-04-20T17:07:20.681Z,101895.63
2019-04-20T17:09:51.818Z,101888.44
2019-04-20T17:12:21.929Z,101883.16
2019-04-20T17:14:52.018Z,101886.23
2019-04-20T17:17:22.306Z,101882.76
2019-04-20T17:19:53.492Z,101884.00
2019-04-20T17:22:23.857Z,101884.82
2019-04-20T17:24:53.863Z,101888.34
2019-04-20T17:27:44.789Z,101890.91
2019-04-20T17:30:53.121Z,101893.00
2019-04-20T17:33:50.723Z,101889.83
2019-04-20T17:36:18.812Z,101887.20
2019-04-20T17:38:52.158Z,101887.43
2019-04-20T17:41:38.735Z,101890.55
2019-04-20T17:44:05.703Z,101889.47
2019-04-20T17:46:32.709Z,101885.73
2019-04-20T17:49:09.335Z,101890.31
2019-04-20T17:51:47.563Z,101888.06
2019-04-20T17:54:16.155Z,101890.50
2019-04-20T17:56:46.675Z,101885.90
2019-04-20T17:59:16.887Z,101885.19
2019-04-20T18:02:19.047Z,101890.67
2019-04-20T18:05:07.170Z,101883.81
2019-04-20T18:07:41.284Z,101895.55
2019-04-20T18:10:06.665Z,101893.62
2019-04-20T18:12:26.932Z,101893.51
2019-04-20T18:15:06.167Z,101896.28
2019-04-20T18:18:02.695Z,101894.19
2019-04-20T18:20:20.896Z,101895.20
2019-04-20T18:22:56.539Z,101891.58
2019-04-20T18:25:53.248Z,101897.66
2019-04-20T18:28:13.811Z,101896.72
2019-04-20T18:30:46.809Z,101895.75
2019-04-20T18:33:09.495Z,101898.80
2019-04-20T18:35:44.373Z,101892.59
2019-04-20T18:38:15.222Z,101891.13
2019-04-20T18:40:55.086Z,101894.83
2019-04-20T18:43:20.512Z,101893.16
2019-04-20T18:46:08.078Z,101893.83
2019-04-20T18:48:44.081Z,101894.01
2019-04-20T18:50:54.585Z,101891.16
2019-04-20T18:53:32.510Z,101895.23
2019-04-20T18:55:59.497Z,101892.55
2019-04-20T18:58:31.227Z,101892.91
2019-04-20T19:01:01.553Z,101900.64
2019-04-20T19:03:35.713Z,101893.91
2019-04-20T19:06:05.987Z,101893.61
2019-04-20T19:08:40.476Z,101898.31
2019-04-20T19:11:13.161Z,101897.30
2019-04-20T19:13:47.813Z,101890.59
2019-04-20T19:16:32.765Z,101897.65
2019-04-20T19:19:23.541Z,101898.48
2019-04-20T19:21:43.680Z,101905.56
2019-04-20T19:24:17.803Z,101909.72
2019-04-20T19:26:53.682Z,101913.74
2019-04-20T19:29:26.494Z,101911.05
2019-04-20T19:32:11.561Z,101902.31
2019-04-20T19:34:36.410Z,101918.44
2019-04-20T19:37:06.218Z,101912.05
2019-04-20T19:39:44.900Z,101896.59
2019-04-20T19:42:14.322Z,101911.71
2019-04-20T19:44:44.949Z,101906.84
2019-04-20T19:47:24.937Z,101914.54
2019-04-20T19:49:44.008Z,101914.54
2019-04-20T19:52:36.907Z,101915.37
2019-04-20T19:54:56.774Z,101899.43
2019-04-20T19:57:34.676Z,101893.87
2019-04-20T19:59:47.249Z,101902.27
2019-04-20T20:02:16.124Z,101907.63
2019-04-20T20:04:50.808Z,101907.63
2019-04-20T20:07:26.762Z,101903.92
2019-04-20T20:09:56.636Z,101904.58
2019-04-20T20:12:23.355Z,101906.24
2019-04-20T20:14:55.224Z,101902.88
2019-04-20T20:17:52.839Z,101903.52
2019-04-20T20:20:30.365Z,101909.55
2019-04-20T20:22:40.447Z,101909.19
2019-04-20T20:25:05.630Z,101909.69
2019-04-20T20:27:46.960Z,101914.03
2019-04-20T20:30:15.084Z,101912.01
2019-04-20T20:32:55.108Z,101914.66
2019-04-20T20:35:20.213Z,101918.50
2019-04-20T20:37:52.665Z,101912.45
2019-04-20T20:40:25.599Z,101920.51
2019-04-20T20:43:01.475Z,101915.80
2019-04-20T20:45:29.628Z,101919.48
2019-04-20T20:48:12.153Z,101912.59
2019-04-20T20:50:42.664Z,101916.59
2019-04-20T20:53:09.023Z,101911.54
2019-04-20T20:55:37.137Z,101914.34
2019-04-20T20:58:10.633Z,101915.66
2019-04-20T21:00:45.753Z,101920.17
2019-04-20T21:03:09.124Z,101920.80
2019-04-20T21:05:37.655Z,101920.80
2019-04-20T21:08:07.967Z,101915.89
2019-04-20T21:10:42.068Z,101916.23
2019-04-20T21:13:12.083Z,101918.04
2019-04-20T21:15:45.425Z,101921.52
2019-04-20T21:18:37.918Z,101922.14
2019-04-20T21:21:02.157Z,101922.14
2019-04-20T21:23:34.156Z,101923.63
2019-04-20T21:26:11.519Z,101924.09
2019-04-20T21:28:41.931Z,101924.09
2019-04-20T21:31:18.109Z,101925.39
2019-04-20T21:33:44.804Z,101914.78
2019-04-20T21:36:19.229Z,101923.96
2019-04-20T21:38:48.666Z,101923.96
2019-04-20T21:41:22.147Z,101921.58
2019-04-20T21:43:53.873Z,101921.58
2019-04-20T21:46:24.928Z,101911.42
2019-04-20T21:49:06.394Z,101922.14
2019-04-20T21:51:37.078Z,101923.12
2019-04-20T21:56:53.791Z,101927.98
2019-04-20T21:59:27.206Z,101927.42
2019-04-20T22:01:58.763Z,101930.05
2019-04-20T22:04:25.047Z,101925.84
2019-04-20T22:07:14.604Z,101918.45
2019-04-20T22:09:48.901Z,101924.16
2019-04-20T22:12:18.037Z,101924.16
2019-04-20T22:14:57.877Z,101922.81
2019-04-20T22:17:24.595Z,101930.18
2019-04-20T22:20:03.794Z,101921.45
2019-04-20T22:22:44.110Z,101923.58
2019-04-20T22:25:10.999Z,101923.58
2019-04-20T22:27:34.340Z,101921.02
2019-04-20T22:30:02.188Z,101916.81
2019-04-20T22:32:37.592Z,101913.94
2019-04-20T22:35:11.722Z,101919.92
2019-04-20T22:38:08.984Z,101911.87
2019-04-20T22:40:36.946Z,101908.66
2019-04-20T22:43:08.282Z,101911.13
2019-04-20T22:45:42.919Z,101908.59
2019-04-20T22:48:13.839Z,101907.41
2019-04-20T22:51:03.503Z,101914.57
2019-04-20T22:53:28.667Z,101910.65
2019-04-20T22:56:10.998Z,101914.75
2019-04-20T22:58:33.611Z,101911.84
2019-04-20T23:00:55.922Z,101915.10
2019-04-20T23:03:22.922Z,101916.00
2019-04-20T23:05:54.369Z,101918.55
2019-04-20T23:08:24.771Z,101921.77
2019-04-20T23:10:55.642Z,101908.23
2019-04-20T23:13:30.378Z,101909.75
2019-04-20T23:16:00.872Z,101901.67
2019-04-20T23:18:29.276Z,101903.75
2019-04-20T23:21:01.325Z,101900.52
2019-04-20T23:23:32.165Z,101905.75
2019-04-20T23:26:03.102Z,101894.81
2019-04-20T23:28:33.365Z,101892.48
2019-04-20T23:31:07.341Z,101894.19
2019-04-20T23:33:36.075Z,101893.06
2019-04-20T23:36:06.794Z,101890.34
2019-04-20T23:38:39.044Z,101886.10
2019-04-20T23:41:10.702Z,101889.70
2019-04-20T23:43:45.246Z,101884.02
2019-04-20T23:46:31.115Z,101881.63
2019-04-20T23:49:28.157Z,101881.51
2019-04-20T23:52:22.039Z,101884.75
2019-04-20T23:54:30.226Z,101885.56
2019-04-20T23:56:59.797Z,101885.30
2019-04-20T23:59:35.785Z,101881.70
